Terminal Aerodrome Forecast
Issued by NWS

Home | Current Version | Previous Version | Text Only | Print | Product List | Glossary On
Versions: 1 2 3 4 5 6 7 8 9 10 11 12 13 14 15 16 17 18 19
000
FTAK31 PAJN 030520
TAFAKT
TAF
PAKT 030520Z 0306/0406 VRB03KT P6SM VCSH SCT015 BKN050
     FM031000 31003KT 4SM BR SCT007 OVC015
     FM031400 32005KT P6SM VCSH SCT015 BKN025 OVC040
     FM031800 35008KT 5SM -SHRA SCT015 OVC025
      TEMPO 0318/0321 4SM -SHRA BKN015 OVC025=

USA.gov is the U.S. government's official web portal to all federal, state and local government web resources and services.